Time;durP1;ratioP1;P1;durP2;ratioP2;P2;SDS_P1;SDS_P2;PMS_P1;PMS_P2;Temp;Humidity;BMP_temperature;BMP_pressure;BME280_temperature;BME280_humidity;BME280_pressure;Samples;Min_cycle;Max_cycle;Signal;HPM_P1;HPM_P2
2023/11/29 00:02:13;;;;;;;32.97;17.40;;;0.90;99.90;;;;;;5078957;28;20044;-68
2023/11/29 00:04:39;;;;;;;33.00;16.42;;;0.90;99.90;;;;;;5080086;28;20332;-68
2023/11/29 00:07:04;;;;;;;35.50;17.73;;;0.90;99.90;;;;;;5080084;28;20028;-68
2023/11/29 00:09:30;;;;;;;34.45;17.58;;;0.90;99.90;;;;;;5070707;28;20045;-68
2023/11/29 00:11:56;;;;;;;28.67;15.45;;;;;;;;;;5058672;28;20029;-68
2023/11/29 00:14:22;;;;;;;23.65;13.32;;;;;;;;;;5060301;28;20029;-68
2023/11/29 00:16:48;;;;;;;29.45;15.95;;;;;;;;;;5059672;28;20040;-68
2023/11/29 00:19:14;;;;;;;28.95;16.42;;;0.90;99.90;;;;;;5059904;28;20063;-68
2023/11/29 00:21:41;;;;;;;26.48;10.93;;;0.90;99.90;;;;;;5058560;28;20048;-68
2023/11/29 00:24:07;;;;;;;26.65;14.35;;;1.20;99.90;;;;;;5059956;28;20029;-68
2023/11/29 00:26:33;;;;;;;22.35;9.00;;;;;;;;;;5059538;28;20063;-68
2023/11/29 00:28:59;;;;;;;28.13;15.05;;;0.80;99.90;;;;;;5059638;28;20082;-69
2023/11/29 00:31:24;;;;;;;18.25;8.85;;;0.80;99.90;;;;;;5059737;28;20046;-68
2023/11/29 00:33:50;;;;;;;26.08;13.80;;;0.70;99.90;;;;;;5070736;28;20142;-68
2023/11/29 00:36:16;;;;;;;27.33;13.35;;;;;;;;;;5079801;28;20318;-69
2023/11/29 00:38:42;;;;;;;29.08;13.85;;;;;;;;;;5079738;28;20040;-68
2023/11/29 00:41:08;;;;;;;28.25;14.80;;;0.60;99.90;;;;;;5079683;28;20020;-68
2023/11/29 00:43:35;;;;;;;21.90;9.77;;;0.70;99.90;;;;;;5079656;28;20217;-68
2023/11/29 00:46:02;;;;;;;12.65;6.15;;;0.80;99.90;;;;;;5079662;28;20029;-72
2023/11/29 00:48:28;;;;;;;23.40;12.68;;;0.50;99.90;;;;;;5079424;28;20350;-69
2023/11/29 00:50:54;;;;;;;29.58;14.95;;;0.50;99.90;;;;;;5079548;28;20052;-69
2023/11/29 00:53:20;;;;;;;26.95;14.05;;;;;;;;;;5079666;28;20032;-68
2023/11/29 00:55:46;;;;;;;19.45;10.70;;;0.60;99.90;;;;;;5078383;28;20047;-69
2023/11/29 00:58:12;;;;;;;24.95;14.00;;;;;;;;;;5079669;28;20048;-69
2023/11/29 01:00:38;;;;;;;24.75;12.48;;;;;;;;;;5079817;28;20032;-68
2023/11/29 01:03:03;;;;;;;31.48;15.50;;;0.70;99.90;;;;;;5083282;28;20056;-68
2023/11/29 01:05:29;;;;;;;28.40;12.80;;;0.50;99.90;;;;;;5083166;28;20054;-69
2023/11/29 01:07:56;;;;;;;30.08;15.95;;;0.70;99.90;;;;;;5083272;28;20060;-69
2023/11/29 01:10:22;;;;;;;30.85;14.95;;;;;;;;;;5072503;28;20016;-69
2023/11/29 01:12:48;;;;;;;25.73;12.45;;;;;;;;;;5062850;28;20033;-68
2023/11/29 01:15:14;;;;;;;29.98;15.38;;;0.50;99.90;;;;;;5062971;28;20100;-69
2023/11/29 01:17:40;;;;;;;32.00;14.82;;;;;;;;;;5062597;28;20036;-68
2023/11/29 01:20:06;;;;;;;21.90;11.60;;;0.30;99.90;;;;;;5062659;28;20017;-68
2023/11/29 01:22:33;;;;;;;33.60;15.82;;;;;;;;;;5062570;28;20037;-68
2023/11/29 01:24:59;;;;;;;22.67;11.57;;;;;;;;;;5062422;28;20028;-68
2023/11/29 01:27:29;;;;;;;34.63;16.05;;;0.30;99.90;;;;;;5062400;28;20048;-68
2023/11/29 01:29:55;;;;;;;30.65;14.95;;;;;;;;;;5062543;28;20013;-69
2023/11/29 01:32:20;;;;;;;32.53;15.43;;;0.20;99.90;;;;;;5062446;28;20052;-69
2023/11/29 01:34:46;;;;;;;22.25;10.45;;;0.30;99.90;;;;;;5062545;28;20048;-69
2023/11/29 01:37:13;;;;;;;23.50;10.90;;;0.20;98.20;;;;;;5061056;28;20037;-70
2023/11/29 01:39:44;;;;;;;23.55;9.77;;;;;;;;;;5062471;28;20029;-69
2023/11/29 01:42:12;;;;;;;32.95;15.90;;;0.20;99.90;;;;;;5062257;28;20033;-70
2023/11/29 01:44:38;;;;;;;23.40;11.07;;;;;;;;;;5062372;28;20056;-69
2023/11/29 01:47:11;;;;;;;33.05;14.82;;;0.00;98.10;;;;;;5062338;28;20032;-69
2023/11/29 01:49:37;;;;;;;24.58;12.75;;;;;;;;;;5062044;28;20264;-69
2023/11/29 01:52:03;;;;;;;37.35;17.15;;;;;;;;;;5061960;28;20021;-69
2023/11/29 01:54:30;;;;;;;31.70;14.82;;;;;;;;;;5062213;28;20024;-69
2023/11/29 01:56:55;;;;;;;36.17;18.15;;;-0.30;99.90;;;;;;5061949;28;20017;-69
2023/11/29 01:59:21;;;;;;;31.00;13.85;;;-0.40;99.90;;;;;;5061925;28;20043;-70
2023/11/29 02:01:47;;;;;;;32.53;14.10;;;;;;;;;;5061791;28;20089;-73
2023/11/29 02:04:13;;;;;;;24.60;12.00;;;;;;;;;;5062063;28;20021;-70
2023/11/29 02:06:41;;;;;;;29.98;14.55;;;-0.50;99.70;;;;;;5061957;28;20032;-70
2023/11/29 02:09:07;;;;;;;39.10;17.20;;;-0.50;99.70;;;;;;5061840;28;20032;-70
2023/11/29 02:11:39;;;;;;;27.48;11.20;;;-0.50;99.90;;;;;;5061713;28;20046;-71
2023/11/29 02:14:05;;;;;;;38.42;17.75;;;-0.50;99.90;;;;;;5060637;28;20040;-70
2023/11/29 02:16:31;;;;;;;31.45;15.07;;;-0.70;99.90;;;;;;5061680;28;20027;-71
2023/11/29 02:18:57;;;;;;;40.83;18.92;;;-0.40;99.90;;;;;;5061319;28;20056;-70
2023/11/29 02:21:24;;;;;;;44.90;19.90;;;-0.50;99.90;;;;;;5061395;28;20017;-69
2023/11/29 02:23:50;;;;;;;43.53;19.85;;;;;;;;;;5061556;28;20044;-74
2023/11/29 02:26:16;;;;;;;42.20;18.88;;;-0.50;99.90;;;;;;5061081;28;20057;-71
2023/11/29 02:28:41;;;;;;;35.95;15.43;;;-0.60;99.90;;;;;;5061163;28;20036;-70
2023/11/29 02:31:07;;;;;;;44.72;19.48;;;;;;;;;;5061196;28;20033;-71
2023/11/29 02:33:33;;;;;;;38.83;18.42;;;-0.50;99.90;;;;;;5061151;28;20020;-71
2023/11/29 02:35:59;;;;;;;36.30;16.55;;;;;;;;;;5061426;28;20033;-71
2023/11/29 02:38:24;;;;;;;32.38;14.27;;;-0.40;99.90;;;;;;5060905;28;20325;-70
2023/11/29 02:40:50;;;;;;;45.63;19.42;;;;;;;;;;5061085;28;20106;-72
2023/11/29 02:43:16;;;;;;;38.72;18.50;;;-0.50;99.90;;;;;;5043075;28;20102;-71
2023/11/29 02:45:42;;;;;;;27.27;11.77;;;;;;;;;;5060964;28;20091;-71
2023/11/29 02:48:08;;;;;;;36.40;16.08;;;;;;;;;;5060963;28;20074;-70
2023/11/29 02:50:34;;;;;;;42.10;20.85;;;;;;;;;;5060895;28;20028;-71
2023/11/29 02:53:00;;;;;;;40.10;18.98;;;;;;;;;;5060848;28;20037;-70
2023/11/29 02:55:26;;;;;;;40.05;18.33;;;;;;;;;;5059719;28;20024;-70
2023/11/29 02:57:52;;;;;;;47.72;19.15;;;;;;;;;;5060591;28;20558;-73
2023/11/29 03:00:18;;;;;;;45.50;20.15;;;;;;;;;;5061072;28;20023;-71
2023/11/29 03:02:45;;;;;;;48.83;21.60;;;-0.60;99.90;;;;;;5060916;28;20032;-71
2023/11/29 03:05:10;;;;;;;47.40;20.02;;;-0.70;99.90;;;;;;5060618;28;20209;-71
2023/11/29 03:07:37;;;;;;;43.65;18.15;;;;;;;;;;5060567;28;20032;-70
2023/11/29 03:10:03;;;;;;;45.58;19.05;;;-0.70;99.90;;;;;;5060551;28;20332;-71
2023/11/29 03:12:28;;;;;;;46.83;20.75;;;-0.70;99.90;;;;;;5060537;28;20146;-71
2023/11/29 03:14:54;;;;;;;47.42;19.33;;;-0.80;99.90;;;;;;5060693;28;20289;-71
2023/11/29 03:17:20;;;;;;;45.78;20.17;;;;;;;;;;5060320;28;20106;-71
2023/11/29 03:19:46;;;;;;;46.05;20.35;;;-0.70;99.90;;;;;;5080578;28;20245;-71
2023/11/29 03:22:11;;;;;;;33.10;15.25;;;-0.60;99.90;;;;;;5080765;28;20039;-70
2023/11/29 03:24:37;;;;;;;37.92;18.25;;;;;;;;;;5080335;28;20384;-71
2023/11/29 03:27:03;;;;;;;48.20;19.10;;;-0.70;99.90;;;;;;5080453;28;20052;-71
2023/11/29 03:29:29;;;;;;;47.47;19.02;;;;;;;;;;5080634;28;20288;-71
2023/11/29 03:31:55;;;;;;;38.97;18.23;;;-0.80;99.90;;;;;;5080285;28;20473;-71
2023/11/29 03:34:21;;;;;;;39.45;17.55;;;-0.80;99.90;;;;;;5080578;28;20100;-71
2023/11/29 03:36:47;;;;;;;42.42;18.73;;;;;;;;;;5080288;28;20190;-70
2023/11/29 03:39:13;;;;;;;45.28;18.98;;;-0.90;99.90;;;;;;5080135;28;20300;-69
2023/11/29 03:41:38;;;;;;;45.78;19.58;;;-0.80;99.90;;;;;;5080346;28;20025;-69
2023/11/29 03:44:04;;;;;;;40.10;18.45;;;-0.80;99.90;;;;;;5080098;28;20217;-70
2023/11/29 03:46:30;;;;;;;35.70;17.80;;;-0.60;99.90;;;;;;5080166;28;20020;-71
2023/11/29 03:48:56;;;;;;;40.58;18.40;;;;;;;;;;5079641;28;20055;-70
2023/11/29 03:51:22;;;;;;;43.47;18.70;;;;;;;;;;5079948;28;20024;-71
2023/11/29 03:53:48;;;;;;;41.90;18.27;;;;;;;;;;5078789;28;20032;-68
2023/11/29 03:56:13;;;;;;;42.05;18.48;;;-0.70;99.90;;;;;;5065194;28;20017;-68
2023/11/29 03:58:39;;;;;;;37.45;18.63;;;-1.10;99.90;;;;;;5079896;28;20112;-70
2023/11/29 04:01:06;;;;;;;44.78;19.58;;;-0.80;99.90;;;;;;5068732;28;20146;-69
2023/11/29 04:03:32;;;;;;;40.35;19.10;;;;;;;;;;5059974;28;20028;-69
2023/11/29 04:05:58;;;;;;;20.85;9.25;;;;;;;;;;5059891;28;20025;-70
2023/11/29 04:08:24;;;;;;;37.67;14.68;;;-0.80;99.90;;;;;;5059981;28;20032;-69
2023/11/29 04:10:49;;;;;;;41.60;17.55;;;-0.80;99.90;;;;;;5059873;28;20025;-69
2023/11/29 04:13:15;;;;;;;38.90;17.95;;;-0.90;99.90;;;;;;5060163;28;20531;-68
2023/11/29 04:15:40;;;;;;;40.40;17.77;;;-0.90;99.90;;;;;;5073901;28;20300;-68
2023/11/29 04:18:06;;;;;;;37.70;16.30;;;;;;;;;;5080271;28;20116;-71
2023/11/29 04:20:32;;;;;;;31.75;13.50;;;;;;;;;;5080417;28;20040;-71
2023/11/29 04:22:58;;;;;;;37.63;16.25;;;;;;;;;;5080142;28;20091;-69
2023/11/29 04:25:24;;;;;;;34.78;16.67;;;-0.80;99.90;;;;;;5080078;28;20352;-68
2023/11/29 04:27:50;;;;;;;37.40;16.70;;;-0.80;99.90;;;;;;5079049;28;20080;-71
2023/11/29 04:30:16;;;;;;;39.15;16.15;;;;;;;;;;5059953;28;20025;-70
2023/11/29 04:32:41;;;;;;;37.17;16.33;;;-0.80;99.90;;;;;;5059927;28;20094;-70
2023/11/29 04:35:08;;;;;;;36.58;16.15;;;;;;;;;;5059779;28;20040;-70
2023/11/29 04:37:34;;;;;;;36.45;17.55;;;;;;;;;;5062888;28;20037;-71
2023/11/29 04:39:59;;;;;;;31.38;14.57;;;-1.10;99.90;;;;;;5063605;28;20371;-70
2023/11/29 04:42:25;;;;;;;37.33;15.18;;;;;;;;;;5063407;28;20092;-70
2023/11/29 04:44:51;;;;;;;33.78;15.32;;;-1.00;99.90;;;;;;5063423;28;20016;-71
2023/11/29 04:47:18;;;;;;;34.33;14.68;;;;;;;;;;5063305;28;20021;-70
2023/11/29 04:49:44;;;;;;;31.40;14.85;;;;;;;;;;5062036;28;20220;-70
2023/11/29 04:52:10;;;;;;;30.73;15.40;;;-1.00;99.90;;;;;;5062110;28;20048;-70
2023/11/29 04:54:36;;;;;;;34.67;14.68;;;-1.00;99.90;;;;;;5063215;28;20021;-70
2023/11/29 04:57:02;;;;;;;32.00;14.55;;;;;;;;;;5063019;28;20039;-71
2023/11/29 04:59:28;;;;;;;32.72;15.30;;;;;;;;;;5063321;28;20028;-70
2023/11/29 05:01:54;;;;;;;24.98;11.25;;;;;;;;;;5063207;28;20025;-70
2023/11/29 05:04:20;;;;;;;31.70;15.45;;;-1.20;99.90;;;;;;5063074;28;20044;-70
2023/11/29 05:06:46;;;;;;;22.60;9.80;;;-1.10;99.90;;;;;;5062906;28;20334;-70
2023/11/29 05:09:14;;;;;;;27.27;13.05;;;-1.20;99.90;;;;;;5062835;28;20025;-70
2023/11/29 05:11:40;;;;;;;25.48;13.00;;;;;;;;;;5062903;28;20351;-70
2023/11/29 05:14:06;;;;;;;28.17;14.23;;;-1.20;99.90;;;;;;5062714;28;20032;-72
2023/11/29 05:16:33;;;;;;;29.55;13.95;;;-1.20;99.90;;;;;;5062700;28;20056;-71
2023/11/29 05:18:59;;;;;;;30.90;13.15;;;-1.20;99.90;;;;;;5062606;28;20064;-71
2023/11/29 05:21:26;;;;;;;25.77;12.52;;;-1.10;99.90;;;;;;5062599;28;20025;-71
2023/11/29 05:23:52;;;;;;;29.65;12.70;;;-1.30;99.90;;;;;;5062542;28;20309;-70
2023/11/29 05:26:18;;;;;;;31.48;13.60;;;;;;;;;;5062388;28;20127;-70
2023/11/29 05:28:44;;;;;;;32.83;13.50;;;-1.30;99.90;;;;;;5062669;28;20028;-69
2023/11/29 05:31:09;;;;;;;30.20;13.32;;;-1.20;99.90;;;;;;5061315;28;20102;-69
2023/11/29 05:33:35;;;;;;;32.53;14.68;;;-1.20;99.90;;;;;;5061081;28;20063;-69
2023/11/29 05:36:02;;;;;;;28.23;13.73;;;-1.20;99.90;;;;;;5062499;28;20059;-71
2023/11/29 05:38:28;;;;;;;29.63;13.68;;;;;;;;;;5062243;28;20041;-71
2023/11/29 05:40:54;;;;;;;27.00;12.95;;;;;;;;;;5061011;28;20390;-71
2023/11/29 05:43:21;;;;;;;29.13;12.20;;;;;;;;;;5062488;28;20025;-70
2023/11/29 05:45:47;;;;;;;27.55;13.30;;;;;;;;;;5062294;28;20053;-69
2023/11/29 05:48:13;;;;;;;27.85;12.52;;;;;;;;;;5061569;28;20021;-70
2023/11/29 05:50:39;;;;;;;28.00;13.27;;;;;;;;;;5060650;28;20036;-69
2023/11/29 05:53:05;;;;;;;30.70;13.38;;;;;;;;;;5060485;28;20028;-69
2023/11/29 05:55:34;;;;;;;28.45;13.02;;;-1.50;99.90;;;;;;5062019;28;20091;-69
2023/11/29 05:58:00;;;;;;;22.17;9.60;;;-1.30;99.90;;;;;;5062144;28;20041;-70
2023/11/29 06:00:26;;;;;;;28.67;13.00;;;-1.30;99.90;;;;;;5061893;28;20570;-69
2023/11/29 06:02:52;;;;;;;26.45;12.90;;;;;;;;;;5061877;28;20103;-69
2023/11/29 06:05:18;;;;;;;25.60;11.70;;;-1.40;99.90;;;;;;5061808;28;20016;-69
2023/11/29 06:07:47;;;;;;;29.70;13.55;;;;;;;;;;5061802;28;20021;-70
2023/11/29 06:10:12;;;;;;;;;;;-1.30;99.30;;;;;;5062318;28;20017;-69
2023/11/29 06:12:39;;;;;;;23.98;11.75;;;;;;;;;;5061788;28;19900;-69
2023/11/29 06:15:05;;;;;;;26.73;11.77;;;;;;;;;;5060348;28;20029;-69
2023/11/29 06:17:35;;;;;;;26.92;11.75;;;-1.40;98.40;;;;;;5061660;28;20333;-69
2023/11/29 06:20:04;;;;;;;26.60;11.77;;;-1.40;99.90;;;;;;5060394;28;20031;-70
2023/11/29 06:22:32;;;;;;;26.75;12.68;;;-1.30;99.90;;;;;;5061778;28;20104;-70
2023/11/29 06:24:59;;;;;;;23.30;11.27;;;-1.40;99.90;;;;;;5061857;28;20070;-70
2023/11/29 06:27:28;;;;;;;21.58;9.20;;;;;;;;;;5061391;28;20080;-69
2023/11/29 06:29:54;;;;;;;26.00;10.50;;;-1.50;99.90;;;;;;5061619;28;20017;-70
2023/11/29 06:32:22;;;;;;;10.00;5.88;;;-1.40;99.90;;;;;;5060397;28;20033;-71
2023/11/29 06:34:47;;;;;;;23.85;10.65;;;-1.30;99.90;;;;;;5061392;28;20339;-71
2023/11/29 06:37:14;;;;;;;25.67;11.45;;;;;;;;;;5061318;28;20032;-71
2023/11/29 06:39:40;;;;;;;21.52;10.27;;;;;;;;;;5061416;28;20052;-70
2023/11/29 06:42:06;;;;;;;23.33;11.23;;;-1.20;99.90;;;;;;5061238;28;20028;-69
2023/11/29 06:44:32;;;;;;;27.30;12.90;;;;;;;;;;5061505;28;20029;-70
2023/11/29 06:46:58;;;;;;;23.92;11.13;;;-1.20;99.90;;;;;;5060673;28;20035;-70
2023/11/29 06:49:26;;;;;;;24.30;11.57;;;;;;;;;;5060929;28;20013;-78
2023/11/29 06:51:52;;;;;;;23.85;12.68;;;-1.30;97.90;;;;;;5061473;28;20021;-76
2023/11/29 06:54:18;;;;;;;23.48;11.88;;;;;;;;;;5060810;28;20032;-74
2023/11/29 06:56:46;;;;;;;23.65;11.15;;;;;;;;;;5061310;28;20037;-69
2023/11/29 06:59:12;;;;;;;22.55;10.65;;;;;;;;;;5060065;28;20106;-68
2023/11/29 07:01:39;;;;;;;25.55;11.75;;;;;;;;;;5061161;28;20017;-66
2023/11/29 07:04:05;;;;;;;23.45;11.43;;;;;;;;;;5061211;28;20037;-66
2023/11/29 07:06:31;;;;;;;25.63;11.85;;;-0.80;97.70;;;;;;5060708;28;20348;-66
2023/11/29 07:08:57;;;;;;;27.45;10.85;;;;;;;;;;5063304;28;20272;-67
2023/11/29 07:11:23;;;;;;;21.60;10.13;;;-0.70;99.90;;;;;;5074373;28;20140;-66
2023/11/29 07:13:49;;;;;;;22.27;11.10;;;-0.60;99.90;;;;;;5061243;28;20036;-66
2023/11/29 07:16:14;;;;;;;20.50;10.40;;;-0.70;99.90;;;;;;5060817;28;20029;-71
2023/11/29 07:18:40;;;;;;;24.50;11.30;;;-0.70;99.90;;;;;;5060590;28;20055;-68
2023/11/29 07:21:06;;;;;;;21.77;10.65;;;-0.70;99.90;;;;;;5060724;28;20037;-68
2023/11/29 07:23:31;;;;;;;22.75;11.18;;;-0.80;99.90;;;;;;5060558;28;20111;-67
2023/11/29 07:25:58;;;;;;;23.02;10.35;;;;;;;;;;5060547;28;20047;-67
2023/11/29 07:28:26;;;;;;;23.42;10.27;;;-0.70;99.90;;;;;;5060492;28;20020;-67
2023/11/29 07:30:52;;;;;;;24.60;10.50;;;;;;;;;;5060626;28;20035;-67
2023/11/29 07:33:18;;;;;;;19.92;10.25;;;;;;;;;;5060421;28;20291;-67
2023/11/29 07:35:44;;;;;;;28.13;11.68;;;-0.70;99.90;;;;;;5077211;28;20075;-67
2023/11/29 07:38:10;;;;;;;28.05;12.50;;;;;;;;;;5080513;28;20055;-67
2023/11/29 07:40:37;;;;;;;26.67;11.48;;;-0.40;99.90;;;;;;5080318;28;20088;-67
2023/11/29 07:43:03;;;;;;;23.92;9.90;;;;;;;;;;5080455;28;20020;-67
2023/11/29 07:45:29;;;;;;;24.35;10.85;;;;;;;;;;5080466;28;20032;-67
2023/11/29 07:47:54;;;;;;;24.77;11.40;;;-0.30;99.90;;;;;;5079160;28;20020;-67
2023/11/29 07:50:20;;;;;;;31.05;12.52;;;-0.20;99.90;;;;;;5080609;28;20040;-67
2023/11/29 07:52:46;;;;;;;20.58;10.10;;;0.30;99.90;;;;;;5080397;28;20062;-67
2023/11/29 07:55:11;;;;;;;21.33;10.93;;;0.20;98.10;;;;;;5080422;28;20035;-68
2023/11/29 07:57:37;;;;;;;25.08;12.13;;;0.20;96.60;;;;;;5080179;28;20047;-67
2023/11/29 08:00:06;;;;;;;26.17;11.45;;;0.30;95.10;;;;;;5080442;28;20208;-67
2023/11/29 08:02:31;;;;;;;25.48;12.45;;;0.30;99.90;;;;;;5080293;28;20024;-67
2023/11/29 08:04:59;;;;;;;26.10;12.50;;;;;;;;;;5080288;28;20032;-68
2023/11/29 08:07:25;;;;;;;23.92;10.52;;;0.30;99.90;;;;;;5080092;28;20017;-67
2023/11/29 08:09:51;;;;;;;22.17;9.98;;;0.40;99.90;;;;;;5080507;28;20186;-67
2023/11/29 08:12:17;;;;;;;24.02;11.48;;;0.70;99.90;;;;;;5084291;28;20091;-67
2023/11/29 08:14:43;;;;;;;21.27;10.77;;;;;;;;;;5084011;28;20032;-67
2023/11/29 08:17:09;;;;;;;23.23;10.43;;;;;;;;;;5084181;28;20070;-67
2023/11/29 08:19:35;;;;;;;23.83;12.00;;;0.70;99.90;;;;;;5084216;28;20024;-67
2023/11/29 08:22:03;;;;;;;22.92;11.07;;;0.90;99.90;;;;;;5084093;28;20412;-68
2023/11/29 08:24:29;;;;;;;23.65;12.20;;;0.90;99.00;;;;;;5078577;28;20040;-67
2023/11/29 08:26:55;;;;;;;23.90;11.38;;;0.90;99.90;;;;;;5063625;28;20313;-68
2023/11/29 08:29:21;;;;;;;22.08;11.60;;;0.90;99.90;;;;;;5063794;28;20301;-68
2023/11/29 08:31:46;;;;;;;23.63;10.95;;;1.10;99.90;;;;;;5063824;28;20059;-68
2023/11/29 08:34:13;;;;;;;23.58;11.57;;;1.00;97.00;;;;;;5063711;28;20036;-69
2023/11/29 08:36:39;;;;;;;26.65;10.73;;;0.90;99.50;;;;;;5063612;28;20035;-68
2023/11/29 08:39:06;;;;;;;24.20;11.13;;;1.20;93.10;;;;;;5063566;28;20060;-68
2023/11/29 08:41:32;;;;;;;23.10;11.02;;;;;;;;;;5063854;28;20133;-68
2023/11/29 08:43:57;;;;;;;23.35;10.70;;;0.90;92.80;;;;;;5063584;28;20024;-68
2023/11/29 08:46:23;;;;;;;23.63;11.25;;;;;;;;;;5063577;28;20071;-68
2023/11/29 08:48:50;;;;;;;22.55;11.10;;;;;;;;;;5063583;28;20025;-68
2023/11/29 08:51:16;;;;;;;21.45;10.43;;;0.60;98.80;;;;;;5063617;28;20029;-68
2023/11/29 08:53:42;;;;;;;20.92;10.23;;;0.80;97.10;;;;;;5072383;28;20066;-69
2023/11/29 08:56:16;;;;;;;23.90;11.38;;;0.70;98.80;;;;;;5083189;28;20020;-68
2023/11/29 08:58:41;;;;;;;23.80;12.18;;;0.60;99.30;;;;;;5083204;28;20024;-68
2023/11/29 09:01:08;;;;;;;24.17;10.95;;;0.50;97.10;;;;;;5083216;28;20036;-68
2023/11/29 09:03:34;;;;;;;20.75;11.73;;;;;;;;;;5083166;28;20329;-70
2023/11/29 09:06:00;;;;;;;25.20;11.80;;;;;;;;;;5083229;28;20028;-68
2023/11/29 09:08:26;;;;;;;24.27;12.05;;;0.60;99.00;;;;;;5083309;28;20016;-69
2023/11/29 09:10:52;;;;;;;24.52;11.70;;;;;;;;;;5081921;28;20427;-69
2023/11/29 09:13:18;;;;;;;23.77;11.05;;;0.90;97.90;;;;;;5082958;28;20244;-69
2023/11/29 09:15:44;;;;;;;23.42;12.38;;;0.80;97.80;;;;;;5082892;28;20032;-68
2023/11/29 09:18:10;;;;;;;26.65;12.90;;;0.90;93.90;;;;;;5082947;28;20037;-68
2023/11/29 09:20:36;;;;;;;27.50;12.52;;;0.90;93.20;;;;;;5082601;28;20017;-68
2023/11/29 09:23:04;;;;;;;25.00;11.15;;;1.40;97.90;;;;;;5082300;28;20111;-68
2023/11/29 09:25:29;;;;;;;25.50;12.45;;;1.10;92.70;;;;;;5082903;28;20032;-68
2023/11/29 09:27:55;;;;;;;26.05;11.52;;;;;;;;;;5071056;28;20249;-68
2023/11/29 09:30:21;;;;;;;23.80;11.98;;;2.00;96.70;;;;;;5062622;28;20032;-69
2023/11/29 09:32:47;;;;;;;24.52;11.35;;;;;;;;;;5062520;28;20379;-68
2023/11/29 09:35:13;;;;;;;23.83;11.55;;;1.50;93.00;;;;;;5062371;28;20309;-70
2023/11/29 09:37:40;;;;;;;24.02;10.88;;;;;;;;;;5062414;28;20083;-69
2023/11/29 09:40:08;;;;;;;26.15;12.70;;;1.40;85.30;;;;;;5062400;28;20025;-69
2023/11/29 09:42:36;;;;;;;20.40;8.27;;;1.40;91.90;;;;;;5062708;28;20017;-69
2023/11/29 09:45:09;;;;;;;23.92;11.40;;;1.50;84.80;;;;;;5062429;28;20016;-70
2023/11/29 09:47:35;;;;;;;22.35;10.93;;;1.80;91.00;;;;;;5062491;28;20028;-69
2023/11/29 09:50:02;;;;;;;22.38;12.60;;;2.10;83.00;;;;;;5062358;28;20107;-69
2023/11/29 09:52:28;;;;;;;21.55;10.93;;;2.40;94.30;;;;;;5062358;28;20024;-69
2023/11/29 09:54:54;;;;;;;23.40;11.52;;;;;;;;;;5062466;28;20021;-69
2023/11/29 09:57:19;;;;;;;22.70;11.68;;;2.50;93.80;;;;;;5062084;28;20280;-71
2023/11/29 09:59:46;;;;;;;22.15;10.93;;;;;;;;;;5062236;28;20033;-69
2023/11/29 10:02:19;;;;;;;24.67;12.07;;;2.90;78.80;;;;;;5062227;28;20016;-68
2023/11/29 10:04:46;;;;;;;25.58;12.52;;;2.70;81.30;;;;;;5062116;28;20033;-69
2023/11/29 10:07:12;;;;;;;22.13;11.05;;;;;;;;;;5061984;28;20432;-69
2023/11/29 10:09:38;;;;;;;24.30;11.55;;;;;;;;;;5061824;28;20033;-68
2023/11/29 10:12:08;;;;;;;24.17;12.35;;;2.50;93.20;;;;;;5061799;28;20021;-68
2023/11/29 10:14:42;;;;;;;24.25;11.30;;;2.40;93.60;;;;;;5062358;28;20027;-69
2023/11/29 10:17:13;;;;;;;25.60;11.43;;;2.20;80.00;;;;;;5062037;28;20025;-69
2023/11/29 10:19:39;;;;;;;24.65;11.80;;;2.10;90.50;;;;;;5061689;28;20048;-69
2023/11/29 10:22:04;;;;;;;24.02;12.40;;;2.10;94.10;;;;;;5061933;28;20021;-69
2023/11/29 10:24:31;;;;;;;22.02;12.25;;;;;;;;;;5061623;28;20345;-69
2023/11/29 10:26:58;;;;;;;26.98;10.65;;;;;;;;;;5061362;28;20053;-69
2023/11/29 10:29:24;;;;;;;22.95;10.25;;;;;;;;;;5061693;28;20016;-69
2023/11/29 10:31:52;;;;;;;19.88;10.73;;;2.10;91.90;;;;;;5061368;28;20029;-69
2023/11/29 10:34:18;;;;;;;20.77;11.18;;;;;;;;;;5060605;28;20040;-69
2023/11/29 10:36:46;;;;;;;24.50;11.65;;;1.90;93.50;;;;;;5061371;28;20252;-68
2023/11/29 10:39:16;;;;;;;25.52;12.10;;;2.40;90.80;;;;;;5061307;28;20091;-69
2023/11/29 10:41:51;;;;;;;22.83;11.85;;;2.50;78.40;;;;;;5061215;28;20029;-70
2023/11/29 10:44:22;;;;;;;24.35;11.85;;;2.60;76.90;;;;;;5061271;28;20031;-69
2023/11/29 10:46:52;;;;;;;22.38;12.02;;;2.70;86.60;;;;;;5061215;28;20029;-70
2023/11/29 10:49:32;;;;;;;18.65;9.05;;;2.70;83.10;;;;;;5061096;28;20029;-70
2023/11/29 10:52:00;;;;;;;22.50;10.80;;;2.80;75.10;;;;;;5071601;28;20058;-68
2023/11/29 10:54:26;;;;;;;21.25;10.70;;;3.10;91.00;;;;;;5062959;28;20070;-68
2023/11/29 10:56:54;;;;;;;22.30;11.32;;;3.20;75.40;;;;;;5079700;28;20056;-69
2023/11/29 10:59:26;;;;;;;22.00;11.18;;;3.00;91.10;;;;;;5081086;28;20036;-68
2023/11/29 11:01:56;;;;;;;22.52;11.32;;;3.10;83.50;;;;;;5080982;28;20029;-69
2023/11/29 11:04:22;;;;;;;;;;;3.00;75.30;;;;;;5081271;28;20070;-69
2023/11/29 11:06:49;;;;;;;22.85;10.80;;;3.20;89.40;;;;;;5080836;28;19900;-69
2023/11/29 11:09:39;;;;;;;20.02;10.63;;;3.40;90.90;;;;;;5080925;28;20087;-69
2023/11/29 11:12:09;;;;;;;22.85;10.65;;;3.80;90.60;;;;;;5080869;28;20083;-69
2023/11/29 11:14:47;;;;;;;24.25;11.52;;;3.50;90.50;;;;;;5080943;28;20025;-69
2023/11/29 11:17:14;;;;;;;22.60;10.57;;;3.60;89.90;;;;;;5080850;28;20079;-69
2023/11/29 11:19:40;;;;;;;20.77;10.98;;;3.40;88.80;;;;;;5081094;28;20369;-69
2023/11/29 11:22:36;;;;;;;20.80;11.15;;;3.70;71.80;;;;;;5080902;28;20056;-69
2023/11/29 11:25:12;;;;;;;19.45;10.35;;;3.80;71.80;;;;;;5076853;28;20028;-69
2023/11/29 11:27:38;;;;;;;22.10;11.43;;;;;;;;;;5080654;28;20056;-69
2023/11/29 11:30:13;;;;;;;20.40;10.32;;;4.10;89.50;;;;;;5080785;28;20036;-69
2023/11/29 11:32:42;;;;;;;20.30;10.30;;;4.10;81.10;;;;;;5080662;28;20340;-69
2023/11/29 11:35:16;;;;;;;20.52;10.65;;;4.40;70.60;;;;;;5080546;28;20142;-69
2023/11/29 11:37:47;;;;;;;22.25;10.82;;;4.50;69.50;;;;;;5080476;28;20097;-69
2023/11/29 11:40:14;;;;;;;20.08;10.05;;;4.50;67.50;;;;;;5080597;28;20024;-69
2023/11/29 11:42:40;;;;;;;18.60;8.43;;;4.40;78.50;;;;;;5080531;28;20028;-69
2023/11/29 11:45:10;;;;;;;17.55;9.45;;;4.00;82.20;;;;;;5080136;28;20059;-70
2023/11/29 11:47:37;;;;;;;18.80;8.70;;;4.00;82.40;;;;;;5080260;28;20016;-68
2023/11/29 11:50:04;;;;;;;16.45;8.35;;;4.40;77.90;;;;;;5080266;28;20028;-69
2023/11/29 11:52:30;;;;;;;17.95;9.80;;;3.20;64.80;;;;;;5080322;28;20024;-69
2023/11/29 11:55:00;;;;;;;19.33;9.88;;;4.10;82.60;;;;;;5080273;28;20221;-69
2023/11/29 11:57:29;;;;;;;15.45;9.32;;;4.60;82.40;;;;;;5080379;28;20028;-69
2023/11/29 11:59:55;;;;;;;20.17;8.77;;;;;;;;;;5078910;28;20432;-69
2023/11/29 12:02:20;;;;;;;16.70;8.85;;;4.50;79.30;;;;;;5080218;28;20013;-69
2023/11/29 12:04:46;;;;;;;18.70;9.43;;;4.60;79.80;;;;;;5080164;28;20021;-70
2023/11/29 12:07:13;;;;;;;18.45;9.02;;;;;;;;;;5080139;28;20036;-69
2023/11/29 12:09:39;;;;;;;18.13;9.90;;;4.80;70.70;;;;;;5080021;28;20204;-68
2023/11/29 12:12:13;;;;;;;16.73;8.55;;;4.80;62.20;;;;;;5080188;28;20359;-69
2023/11/29 12:14:46;;;;;;;17.80;8.85;;;4.70;61.80;;;;;;5080287;28;20102;-69
2023/11/29 12:17:13;;;;;;;22.25;10.20;;;4.50;78.50;;;;;;5080120;28;20037;-70
2023/11/29 12:19:42;;;;;;;17.75;9.60;;;4.70;61.90;;;;;;5080028;28;20028;-70
2023/11/29 12:22:08;;;;;;;18.48;9.60;;;5.00;77.00;;;;;;5080051;28;20024;-70
2023/11/29 12:24:47;;;;;;;19.23;9.82;;;5.10;70.70;;;;;;5079991;28;20035;-70
2023/11/29 12:27:14;;;;;;;16.48;9.60;;;5.10;76.90;;;;;;5078528;28;20279;-69
2023/11/29 12:29:49;;;;;;;18.42;9.85;;;4.80;76.60;;;;;;5080162;28;20048;-69
2023/11/29 12:32:15;;;;;;;16.02;9.13;;;4.90;76.90;;;;;;5078721;28;20255;-69
2023/11/29 12:34:43;;;;;;;17.33;9.43;;;5.50;62.80;;;;;;5078846;28;20056;-69
2023/11/29 12:37:14;;;;;;;14.57;8.18;;;5.80;62.20;;;;;;5079938;28;20032;-69
2023/11/29 12:39:45;;;;;;;16.33;9.13;;;6.00;61.60;;;;;;5080042;28;20021;-69
2023/11/29 12:42:11;;;;;;;15.35;9.30;;;6.60;61.20;;;;;;5073324;28;20035;-69
2023/11/29 12:44:40;;;;;;;15.40;9.07;;;7.70;58.90;;;;;;5060962;28;20029;-69
2023/11/29 12:47:06;;;;;;;12.88;8.82;;;8.90;66.70;;;;;;5079801;28;20025;-70
2023/11/29 12:49:32;;;;;;;19.27;10.07;;;10.40;61.60;;;;;;5079762;28;20036;-69
2023/11/29 12:51:58;;;;;;;12.63;9.05;;;11.80;58.40;;;;;;5079688;28;20025;-69
2023/11/29 12:54:24;;;;;;;15.85;9.90;;;11.90;50.50;;;;;;5078486;28;20115;-69
2023/11/29 12:56:50;;;;;;;12.48;8.82;;;14.60;41.70;;;;;;5079871;28;20036;-68
2023/11/29 12:59:16;;;;;;;12.02;8.63;;;15.60;42.20;;;;;;5083199;28;20082;-69
2023/11/29 13:01:42;;;;;;;11.77;8.90;;;17.70;39.40;;;;;;5083319;28;20239;-68
2023/11/29 13:04:09;;;;;;;11.95;8.55;;;17.30;38.10;;;;;;5083290;28;20027;-68
2023/11/29 13:06:34;;;;;;;11.18;8.48;;;20.40;34.30;;;;;;5083332;28;20025;-69